Autopride — CQQE — position and weather

sailwx.info

Track history (hours):
 
Tides and Currents Weather Stations Pressure Air Temp Water Temp Dewpoint Dewpoint Depression Visibility Wind Speed Wind Dir Waves Ship Positions

Autopride

Last reported at 2016-May-26 17:29 UTC. Time now 2016-May-26 18:30 UTC.
Position N 51°37' E 002°43'.

Length 125 m; draft 4.8 m.

Type: Cargo ship. MMSI: 255801560.

Date/timePositionNaut miles runAvg speedWind from/ knotsBaromVisibWave heightAir tempDewpointWater temp
2016-May-26 17:29N 51°37' E 002°43'1616.6
2016-May-26 16:34N 51°22' E 002°47'1615.7
2016-May-26 15:33N 51°21' E 003°12'2 1.7
2016-May-26 14:33N 51°19' E 003°13'0 0.4
2016-May-26 13:32N 51°19' E 003°13'0 0.0
2016-May-26 12:32N 51°19' E 003°13'0 0.0
2016-May-26 11:23N 51°19' E 003°13'0 0.0
2016-May-26 10:32N 51°19' E 003°13'0 0.0
2016-May-26 09:32N 51°19' E 003°13'0 0.0
2016-May-26 08:32N 51°19' E 003°13'0 0.0
2016-May-26 07:26N 51°19' E 003°13'0 0.0
2016-May-26 06:32N 51°19' E 003°13'0 0.0
2016-May-26 05:32N 51°19' E 003°13'0 0.0
2016-May-26 04:32N 51°19' E 003°13'0 0.0
2016-May-26 03:29N 51°19' E 003°13'1 0.6
2016-May-26 02:33N 51°20' E 003°13'4 4.3
2016-May-26 01:33N 51°23' E 003°09'1615.7
2016-May-26 00:34N 51°22' E 002°44'10 9.7
2016-May-25 23:31N 51°21' E 002°28'1010.0
2016-May-25 22:34N 51°17' E 002°14'1312.6
2016-May-25 21:34N 51°10' E 001°57'1313.5
2016-May-25 20:34N 51°02' E 001°40'1313.4
2016-May-25 19:33N 50°52' E 001°26'1413.1
2016-May-25 18:31N 50°39' E 001°18'3913.3
2016-May-25 15:33N 50°23' E 000°21'1313.5
2016-May-25 14:34N 50°19' E 000°01'1312.9
2016-May-25 13:33N 50°16' W 000°18'9715.3
2016-May-25 07:15N 49°51' W 002°44'1615.0
2016-May-25 06:11N 49°44' W 003°06'914.9
2016-May-25 05:33N 49°39' W 003°19'8313.5
2016-May-24 23:23N 48°56' W 005°09'1012.4
2016-May-24 22:33N 48°51' W 005°22'1111.0
2016-May-24 21:32N 48°45' W 005°36'7212.1
2016-May-24 15:34N 47°33' W 005°26'13 0.3
2016-May-22 15:30N 47°40' W 005°10'7913.1
2016-May-22 09:28N 48°58' W 005°28'8813.8
2016-May-22 03:03N 49°44' W 003°32'815.2
2016-May-22 02:33N 49°48' W 003°22'1616.1
2016-May-22 01:33N 49°56' W 002°60'1716.7
2016-May-22 00:33N 50°01' W 002°36'1816.1
2016-May-21 23:27N 50°06' W 002°09'6412.6
2016-May-21 18:24N 50°25' W 000°34'1214.3
2016-May-21 17:33N 50°28' W 000°16'1615.6
2016-May-21 16:34N 50°33' E 000°08'1616.4
2016-May-21 15:33N 50°38' E 000°32'3115.2
2016-May-21 13:31N 50°56' E 001°12'1313.2
2016-May-21 12:33N 51°04' E 001°28'1211.7
2016-May-21 11:33N 51°13' E 001°40'1313.5
2016-May-21 10:34N 51°26' E 001°45'1515.4
2016-May-21 09:34N 51°41' E 001°45'1716.5
2016-May-21 08:34N 51°58' E 001°45'1717.3
2016-May-21 07:33N 52°15' E 001°52'1716.9
2016-May-21 06:34N 52°31' E 001°56'1716.7
2016-May-21 05:33N 52°48' E 001°51'1717.2
2016-May-21 04:34N 52°60' E 001°31'1716.5
2016-May-21 03:33N 53°12' E 001°12'1616.1
2016-May-21 02:33N 53°22' E 000°51'1716.5
2016-May-21 01:33N 53°28' E 000°25'1414.3
2016-May-21 00:34N 53°35' E 000°04'10 9.5
2016-May-20 23:33N 53°38' W 000°11'0 0.3
2016-May-20 22:33N 53°38' W 000°12'0 0.0
2016-May-20 21:33N 53°38' W 000°12'0 0.0
2016-May-20 20:33N 53°38' W 000°12'0 0.0
2016-May-20 19:33N 53°38' W 000°12'0 0.0
2016-May-20 18:33N 53°38' W 000°12'0 0.0
2016-May-20 17:33N 53°38' W 000°12'0 0.0
2016-May-20 16:33N 53°38' W 000°12'0 0.0
2016-May-20 15:30N 53°38' W 000°12'0 0.0
2016-May-20 14:33N 53°38' W 000°12'0 0.3
2016-May-20 13:34N 53°38' W 000°11'5 5.0
2016-May-20 12:34N 53°36' W 000°03'1212.3
2016-May-20 11:33N 53°33' E 000°17'1312.6
2016-May-20 10:34N 53°34' E 000°38'14714.3
2016-May-20 00:15N 53°31' E 004°46'1116.1
2016-May-19 23:33N 53°35' E 005°03'1616.1
2016-May-19 22:33N 53°40' E 005°29'1615.7
2016-May-19 21:33N 53°44' E 005°55'1514.8
2016-May-19 20:33N 53°49' E 006°19'1414.0
2016-May-19 19:33N 53°52' E 006°42'1413.9
2016-May-19 18:34N 53°56' E 007°04'1414.2
2016-May-19 17:33N 53°60' E 007°28'1514.6
2016-May-19 16:34N 54°02' E 007°52'1514.5
2016-May-19 15:34N 54°00' E 008°17'1817.9
2016-May-19 14:34N 53°52' E 008°44'0 0.2
2016-May-19 13:29N 53°52' E 008°43'0 0.0
2016-May-19 12:31N 53°52' E 008°43'0 0.0
2016-May-19 11:31N 53°52' E 008°43'0 0.0
2016-May-19 10:31N 53°52' E 008°43'0 0.0
2016-May-19 09:31N 53°52' E 008°43'0 0.0
2016-May-19 08:31N 53°52' E 008°43'0 0.0
2016-May-19 07:34N 53°52' E 008°43'6 5.9
2016-May-19 06:33N 53°57' E 008°38'1918.6
2016-May-19 05:33N 53°59' E 008°07'2020.0
2016-May-19 04:33N 53°56' E 007°33'1919.2
2016-May-19 03:33N 53°51' E 007°02'1918.6
2016-May-19 02:33N 53°47' E 006°31'1818.4
2016-May-19 01:33N 53°41' E 006°01'1818.3
2016-May-19 00:33N 53°36' E 005°32'1818.0
2016-May-18 23:33N 53°30' E 005°03'1917.4
2016-May-18 22:27N 53°18' E 004°38'1718.4
2016-May-18 21:32N 53°03' E 004°24'1818.3
2016-May-18 20:33N 52°47' E 004°10'1818.2
2016-May-18 19:33N 52°34' E 003°49'8017.9
2016-May-18 15:05N 51°25' E 002°43'510.3
2016-May-18 14:34N 51°22' E 002°50'1412.9
2016-May-18 13:26N 51°20' E 003°13'1 0.7
2016-May-18 12:33N 51°19' E 003°13'0 0.0
2016-May-18 11:33N 51°19' E 003°13'0 0.0
2016-May-18 10:33N 51°19' E 003°13'0 0.0
2016-May-18 09:33N 51°19' E 003°13'0 0.0
2016-May-18 08:29N 51°19' E 003°13'0 0.0
2016-May-18 07:32N 51°19' E 003°13'0 0.0
2016-May-18 06:32N 51°19' E 003°13'0 0.0
2016-May-18 05:29N 51°19' E 003°13'0 0.0
2016-May-18 04:32N 51°19' E 003°13'0 0.0
2016-May-18 03:26N 51°19' E 003°13'0 0.0
2016-May-18 02:32N 51°19' E 003°13'0 0.0
2016-May-18 01:29N 51°19' E 003°13'0 0.0
2016-May-18 00:29N 51°19' E 003°13'0 0.4
2016-May-17 23:33N 51°19' E 003°13'1 0.7
2016-May-17 22:33N 51°20' E 003°13'10 9.9
2016-May-17 21:33N 51°22' E 002°57'1312.9
2016-May-17 20:33N 51°22' E 002°37'9 9.3
2016-May-17 19:34N 51°20' E 002°22'8 8.1
2016-May-17 18:34N 51°15' E 002°12'5 5.3
2016-May-17 17:34N 51°12' E 002°04'5 5.2
2016-May-17 16:33N 51°10' E 001°57'10 9.8
2016-May-17 15:34N 51°05' E 001°43'1111.2
2016-May-17 14:34N 50°57' E 001°32'1211.7
2016-May-17 13:34N 50°46' E 001°24'1212.0
2016-May-17 12:33N 50°36' E 001°13'3712.2
2016-May-17 09:30N 50°23' E 000°18'1212.5
2016-May-17 08:34N 50°19' E 000°01'1313.0
2016-May-17 07:33N 50°16' W 000°19'1413.7
2016-May-17 06:31N 50°12' W 000°41'1414.5
2016-May-17 05:33N 50°08' W 001°02'1614.9
2016-May-17 04:28N 50°04' W 001°26'2914.6
2016-May-17 02:27N 49°56' W 002°10'1513.3
2016-May-17 01:21N 49°53' W 002°32'1012.8
2016-May-17 00:33N 49°50' W 002°47'1312.6
2016-May-16 23:33N 49°44' W 003°05'1312.6
2016-May-16 22:33N 49°37' W 003°21'1312.7
2016-May-16 21:33N 49°31' W 003°38'1212.1
2016-May-16 20:33N 49°25' W 003°54'1812.8
2016-May-16 19:11N 49°17' W 004°18'  
Track history (hours):
 
Tides and Currents Weather Stations Pressure Air Temp Water Temp Dewpoint Dewpoint Depression Visibility Wind Speed Wind Dir Waves Ship Positions

Autopride

Last reported at 2016-May-26 17:29 UTC. Time now 2016-May-26 18:30 UTC.
Position N 51°37' E 002°43'.

Length 125 m; draft 4.8 m.

Type: Cargo ship. MMSI: 255801560.

Date/timePositionNaut miles runAvg speedWind from/ knotsBaromVisibWave heightAir tempDewpointWater temp
2016-May-26 17:29N 51°37' E 002°43'1616.6
2016-May-26 16:34N 51°22' E 002°47'1615.7
2016-May-26 15:33N 51°21' E 003°12'2 1.7
2016-May-26 14:33N 51°19' E 003°13'0 0.4
2016-May-26 13:32N 51°19' E 003°13'0 0.0
2016-May-26 12:32N 51°19' E 003°13'0 0.0
2016-May-26 11:23N 51°19' E 003°13'0 0.0
2016-May-26 10:32N 51°19' E 003°13'0 0.0
2016-May-26 09:32N 51°19' E 003°13'0 0.0
2016-May-26 08:32N 51°19' E 003°13'0 0.0
2016-May-26 07:26N 51°19' E 003°13'0 0.0
2016-May-26 06:32N 51°19' E 003°13'0 0.0
2016-May-26 05:32N 51°19' E 003°13'0 0.0
2016-May-26 04:32N 51°19' E 003°13'0 0.0
2016-May-26 03:29N 51°19' E 003°13'1 0.6
2016-May-26 02:33N 51°20' E 003°13'4 4.3
2016-May-26 01:33N 51°23' E 003°09'1615.7
2016-May-26 00:34N 51°22' E 002°44'10 9.7
2016-May-25 23:31N 51°21' E 002°28'1010.0
2016-May-25 22:34N 51°17' E 002°14'1312.6
2016-May-25 21:34N 51°10' E 001°57'1313.5
2016-May-25 20:34N 51°02' E 001°40'1313.4
2016-May-25 19:33N 50°52' E 001°26'1413.1
2016-May-25 18:31N 50°39' E 001°18'3913.3
2016-May-25 15:33N 50°23' E 000°21'1313.5
2016-May-25 14:34N 50°19' E 000°01'1312.9
2016-May-25 13:33N 50°16' W 000°18'9715.3
2016-May-25 07:15N 49°51' W 002°44'1615.0
2016-May-25 06:11N 49°44' W 003°06'914.9
2016-May-25 05:33N 49°39' W 003°19'8313.5
2016-May-24 23:23N 48°56' W 005°09'1012.4
2016-May-24 22:33N 48°51' W 005°22'1111.0
2016-May-24 21:32N 48°45' W 005°36'7212.1
2016-May-24 15:34N 47°33' W 005°26'13 0.3
2016-May-22 15:30N 47°40' W 005°10'7913.1
2016-May-22 09:28N 48°58' W 005°28'8813.8
2016-May-22 03:03N 49°44' W 003°32'815.2
2016-May-22 02:33N 49°48' W 003°22'1616.1
2016-May-22 01:33N 49°56' W 002°60'1716.7
2016-May-22 00:33N 50°01' W 002°36'1816.1
2016-May-21 23:27N 50°06' W 002°09'6412.6
2016-May-21 18:24N 50°25' W 000°34'1214.3
2016-May-21 17:33N 50°28' W 000°16'1615.6
2016-May-21 16:34N 50°33' E 000°08'1616.4
2016-May-21 15:33N 50°38' E 000°32'3115.2
2016-May-21 13:31N 50°56' E 001°12'1313.2
2016-May-21 12:33N 51°04' E 001°28'1211.7
2016-May-21 11:33N 51°13' E 001°40'1313.5
2016-May-21 10:34N 51°26' E 001°45'1515.4
2016-May-21 09:34N 51°41' E 001°45'1716.5
2016-May-21 08:34N 51°58' E 001°45'1717.3
2016-May-21 07:33N 52°15' E 001°52'1716.9
2016-May-21 06:34N 52°31' E 001°56'1716.7
2016-May-21 05:33N 52°48' E 001°51'1717.2
2016-May-21 04:34N 52°60' E 001°31'1716.5
2016-May-21 03:33N 53°12' E 001°12'1616.1
2016-May-21 02:33N 53°22' E 000°51'1716.5
2016-May-21 01:33N 53°28' E 000°25'1414.3
2016-May-21 00:34N 53°35' E 000°04'10 9.5
2016-May-20 23:33N 53°38' W 000°11'0 0.3
2016-May-20 22:33N 53°38' W 000°12'0 0.0
2016-May-20 21:33N 53°38' W 000°12'0 0.0
2016-May-20 20:33N 53°38' W 000°12'0 0.0
2016-May-20 19:33N 53°38' W 000°12'0 0.0
2016-May-20 18:33N 53°38' W 000°12'0 0.0
2016-May-20 17:33N 53°38' W 000°12'0 0.0
2016-May-20 16:33N 53°38' W 000°12'0 0.0
2016-May-20 15:30N 53°38' W 000°12'0 0.0
2016-May-20 14:33N 53°38' W 000°12'0 0.3
2016-May-20 13:34N 53°38' W 000°11'5 5.0
2016-May-20 12:34N 53°36' W 000°03'1212.3
2016-May-20 11:33N 53°33' E 000°17'1312.6
2016-May-20 10:34N 53°34' E 000°38'14714.3
2016-May-20 00:15N 53°31' E 004°46'1116.1
2016-May-19 23:33N 53°35' E 005°03'1616.1
2016-May-19 22:33N 53°40' E 005°29'1615.7
2016-May-19 21:33N 53°44' E 005°55'1514.8
2016-May-19 20:33N 53°49' E 006°19'1414.0
2016-May-19 19:33N 53°52' E 006°42'1413.9
2016-May-19 18:34N 53°56' E 007°04'1414.2
2016-May-19 17:33N 53°60' E 007°28'1514.6
2016-May-19 16:34N 54°02' E 007°52'1514.5
2016-May-19 15:34N 54°00' E 008°17'1817.9
2016-May-19 14:34N 53°52' E 008°44'0 0.2
2016-May-19 13:29N 53°52' E 008°43'0 0.0
2016-May-19 12:31N 53°52' E 008°43'0 0.0
2016-May-19 11:31N 53°52' E 008°43'0 0.0
2016-May-19 10:31N 53°52' E 008°43'0 0.0
2016-May-19 09:31N 53°52' E 008°43'0 0.0
2016-May-19 08:31N 53°52' E 008°43'0 0.0
2016-May-19 07:34N 53°52' E 008°43'6 5.9
2016-May-19 06:33N 53°57' E 008°38'1918.6
2016-May-19 05:33N 53°59' E 008°07'2020.0
2016-May-19 04:33N 53°56' E 007°33'1919.2
2016-May-19 03:33N 53°51' E 007°02'1918.6
2016-May-19 02:33N 53°47' E 006°31'1818.4
2016-May-19 01:33N 53°41' E 006°01'1818.3
2016-May-19 00:33N 53°36' E 005°32'1818.0
2016-May-18 23:33N 53°30' E 005°03'1917.4
2016-May-18 22:27N 53°18' E 004°38'1718.4
2016-May-18 21:32N 53°03' E 004°24'1818.3
2016-May-18 20:33N 52°47' E 004°10'1818.2
2016-May-18 19:33N 52°34' E 003°49'8017.9
2016-May-18 15:05N 51°25' E 002°43'510.3
2016-May-18 14:34N 51°22' E 002°50'1412.9
2016-May-18 13:26N 51°20' E 003°13'1 0.7
2016-May-18 12:33N 51°19' E 003°13'0 0.0
2016-May-18 11:33N 51°19' E 003°13'0 0.0
2016-May-18 10:33N 51°19' E 003°13'0 0.0
2016-May-18 09:33N 51°19' E 003°13'0 0.0
2016-May-18 08:29N 51°19' E 003°13'0 0.0
2016-May-18 07:32N 51°19' E 003°13'0 0.0
2016-May-18 06:32N 51°19' E 003°13'0 0.0
2016-May-18 05:29N 51°19' E 003°13'0 0.0
2016-May-18 04:32N 51°19' E 003°13'0 0.0
2016-May-18 03:26N 51°19' E 003°13'0 0.0
2016-May-18 02:32N 51°19' E 003°13'0 0.0
2016-May-18 01:29N 51°19' E 003°13'0 0.0
2016-May-18 00:29N 51°19' E 003°13'0 0.4
2016-May-17 23:33N 51°19' E 003°13'1 0.7
2016-May-17 22:33N 51°20' E 003°13'10 9.9
2016-May-17 21:33N 51°22' E 002°57'1312.9
2016-May-17 20:33N 51°22' E 002°37'9 9.3
2016-May-17 19:34N 51°20' E 002°22'8 8.1
2016-May-17 18:34N 51°15' E 002°12'5 5.3
2016-May-17 17:34N 51°12' E 002°04'5 5.2
2016-May-17 16:33N 51°10' E 001°57'10 9.8
2016-May-17 15:34N 51°05' E 001°43'1111.2
2016-May-17 14:34N 50°57' E 001°32'1211.7
2016-May-17 13:34N 50°46' E 001°24'1212.0
2016-May-17 12:33N 50°36' E 001°13'3712.2
2016-May-17 09:30N 50°23' E 000°18'1212.5
2016-May-17 08:34N 50°19' E 000°01'1313.0
2016-May-17 07:33N 50°16' W 000°19'1413.7
2016-May-17 06:31N 50°12' W 000°41'1414.5
2016-May-17 05:33N 50°08' W 001°02'1614.9
2016-May-17 04:28N 50°04' W 001°26'2914.6
2016-May-17 02:27N 49°56' W 002°10'1513.3
2016-May-17 01:21N 49°53' W 002°32'1012.8
2016-May-17 00:33N 49°50' W 002°47'1312.6
2016-May-16 23:33N 49°44' W 003°05'1312.6
2016-May-16 22:33N 49°37' W 003°21'1312.7
2016-May-16 21:33N 49°31' W 003°38'1212.1
2016-May-16 20:33N 49°25' W 003°54'1812.8
2016-May-16 19:11N 49°17' W 004°18'  

Dump ship's entire track history